createdAt,value
2018-08-01T00:00:37.109Z,2.73
2018-08-01T00:03:04.904Z,2.80
2018-08-01T00:15:17.888Z,2.60
2018-08-01T00:17:45.317Z,3.03
2018-08-01T00:20:12.911Z,2.20
2018-08-01T00:22:40.284Z,2.87
2018-08-01T00:25:08.396Z,2.83
2018-08-01T00:27:35.783Z,2.73
2018-08-01T00:30:03.501Z,3.13
2018-08-01T00:32:35.156Z,3.20
2018-08-01T00:35:07.290Z,3.30
2018-08-01T00:37:35.519Z,3.20
2018-08-01T00:40:02.945Z,3.13
2018-08-01T00:42:30.306Z,2.83
2018-08-01T00:44:58.469Z,2.67
2018-08-01T00:47:25.982Z,2.90
2018-08-01T00:49:54.066Z,3.00
2018-08-01T00:52:21.434Z,3.00
2018-08-01T00:54:48.758Z,3.07
2018-08-01T00:57:16.901Z,3.63
2018-08-01T00:59:44.493Z,2.60
2018-08-01T01:02:11.955Z,2.80
2018-08-01T01:04:44.016Z,2.67
2018-08-01T01:07:11.389Z,3.10
2018-08-01T01:09:38.754Z,2.40
2018-08-01T01:12:06.107Z,3.30
2018-08-01T01:14:33.939Z,2.73
2018-08-01T01:17:01.306Z,3.47
2018-08-01T01:19:29.381Z,2.40
2018-08-01T01:21:56.765Z,3.57
2018-08-01T01:24:24.174Z,2.90
2018-08-01T01:26:51.596Z,2.90
2018-08-01T01:29:18.986Z,2.77
2018-08-01T01:31:46.369Z,2.80
2018-08-01T01:43:59.238Z,3.10
2018-08-01T01:46:26.710Z,3.10
2018-08-01T01:48:54.411Z,3.30
2018-08-01T01:51:21.919Z,3.70
2018-08-01T01:53:49.294Z,4.57
2018-08-01T01:56:21.249Z,4.00
2018-08-01T01:58:48.665Z,3.73
2018-08-01T02:01:15.968Z,3.03
2018-08-01T02:03:43.376Z,3.57
2018-08-01T02:06:11.502Z,4.00
2018-08-01T02:08:38.916Z,3.53
2018-08-01T02:11:06.306Z,4.67
2018-08-01T02:13:34.326Z,3.90
2018-08-01T02:16:02.841Z,4.37
2018-08-01T02:18:30.514Z,2.57
2018-08-01T02:20:58.153Z,4.60
2018-08-01T02:23:25.575Z,4.87
2018-08-01T02:25:52.961Z,5.23
2018-08-01T02:28:20.745Z,4.70
2018-08-01T02:30:48.141Z,4.77
2018-08-01T02:33:15.532Z,5.03
2018-08-01T02:35:43.883Z,5.00
2018-08-01T02:38:11.327Z,5.00
2018-08-01T02:40:40.027Z,5.20
2018-08-01T02:43:07.364Z,4.33
2018-08-01T02:45:34.983Z,5.27
2018-08-01T02:57:52.133Z,4.70
2018-08-01T03:00:19.560Z,5.10
2018-08-01T03:02:47.105Z,4.33
2018-08-01T03:05:19.271Z,3.77
2018-08-01T03:07:46.615Z,4.10
2018-08-01T03:10:14.070Z,4.00
2018-08-01T03:12:41.592Z,4.27
2018-08-01T03:15:09.404Z,3.87
2018-08-01T03:17:37.063Z,4.87
2018-08-01T03:20:04.867Z,6.10
2018-08-01T03:22:32.183Z,4.90
2018-08-01T03:25:03.598Z,5.03
2018-08-01T03:27:33.582Z,4.63
2018-08-01T03:30:01.236Z,4.80
2018-08-01T03:32:29.117Z,5.83
2018-08-01T03:34:56.447Z,3.70
2018-08-01T03:37:28.366Z,4.23
2018-08-01T03:39:55.685Z,4.20
2018-08-01T03:42:23.725Z,5.33
2018-08-01T03:44:51.253Z,5.87
2018-08-01T03:47:19.356Z,5.30
2018-08-01T03:49:46.849Z,4.60
2018-08-01T03:52:14.538Z,5.00
2018-08-01T03:54:41.996Z,4.47
2018-08-01T03:57:09.820Z,4.67
2018-08-01T03:59:37.138Z,4.47
2018-08-01T04:02:04.518Z,4.23
2018-08-01T04:04:31.897Z,5.87
2018-08-01T04:06:59.246Z,5.50
2018-08-01T04:09:26.590Z,5.27
2018-08-01T04:11:54.373Z,5.33
2018-08-01T04:14:22.030Z,5.07
2018-08-01T04:16:50.400Z,4.83
2018-08-01T04:19:17.781Z,4.87
2018-08-01T04:21:45.078Z,5.20
2018-08-01T04:24:18.960Z,4.47
2018-08-01T04:26:46.796Z,5.10
2018-08-01T04:29:14.570Z,5.20
2018-08-01T04:31:46.993Z,4.80
2018-08-01T04:34:18.385Z,5.10
2018-08-01T04:46:30.850Z,5.30
2018-08-01T04:48:58.320Z,4.30
2018-08-01T04:51:25.981Z,4.70
2018-08-01T04:53:53.962Z,4.30
2018-08-01T04:56:21.898Z,4.07
2018-08-01T04:58:49.277Z,4.83
2018-08-01T05:01:16.556Z,5.00
2018-08-01T05:03:44.496Z,4.97
2018-08-01T05:06:11.914Z,4.60
2018-08-01T05:08:39.300Z,5.60
2018-08-01T05:11:06.668Z,4.57
2018-08-01T05:13:34.188Z,4.90
2018-08-01T05:16:01.566Z,4.53
2018-08-01T05:18:28.900Z,4.00
2018-08-01T05:20:56.781Z,4.90
2018-08-01T05:23:24.268Z,4.87
2018-08-01T05:25:51.648Z,4.57
2018-08-01T05:28:18.948Z,4.30
2018-08-01T05:30:46.280Z,4.30
2018-08-01T05:33:13.618Z,4.20
2018-08-01T05:35:42.097Z,4.53
2018-08-01T05:38:09.415Z,4.73
2018-08-01T05:40:37.101Z,4.70
2018-08-01T05:43:05.130Z,4.10
2018-08-01T05:45:32.449Z,4.47
2018-08-01T05:48:01.057Z,3.97
2018-08-01T05:50:28.507Z,3.73
2018-08-01T05:52:56.060Z,3.40
2018-08-01T05:55:23.359Z,4.83
2018-08-01T05:57:51.311Z,3.93
2018-08-01T06:00:19.668Z,4.70
2018-08-01T06:02:47.718Z,4.13
2018-08-01T06:05:15.100Z,4.93
2018-08-01T06:07:42.636Z,4.30
2018-08-01T06:10:10.023Z,5.27
2018-08-01T06:12:37.356Z,5.03
2018-08-01T06:15:05.047Z,5.13
2018-08-01T06:17:32.366Z,6.40
2018-08-01T06:19:59.662Z,5.90
2018-08-01T06:22:26.944Z,5.70
2018-08-01T06:24:54.737Z,6.00
2018-08-01T06:27:22.001Z,6.10
2018-08-01T06:29:49.301Z,5.57
2018-08-01T06:32:16.583Z,5.73
2018-08-01T06:34:43.983Z,5.83
2018-08-01T06:37:11.316Z,6.53
2018-08-01T06:39:38.795Z,6.00
2018-08-01T06:42:06.153Z,4.93
2018-08-01T06:44:33.552Z,5.23
2018-08-01T06:47:00.822Z,4.60
2018-08-01T06:49:28.147Z,3.80
2018-08-01T06:51:55.416Z,4.00
2018-08-01T06:54:22.742Z,3.70
2018-08-01T06:56:50.059Z,3.80
2018-08-01T06:59:17.501Z,2.17
2018-08-01T07:01:44.956Z,2.50
2018-08-01T07:04:12.218Z,2.17
2018-08-01T07:06:39.523Z,3.13
2018-08-01T07:09:09.502Z,2.30
2018-08-01T07:11:36.758Z,2.43
2018-08-01T07:14:04.096Z,2.50
2018-08-01T07:16:31.542Z,2.77
2018-08-01T07:18:58.823Z,2.53
2018-08-01T07:21:26.155Z,2.40
2018-08-01T07:23:53.483Z,2.13
2018-08-01T07:26:20.778Z,2.13
2018-08-01T07:28:48.089Z,2.80
2018-08-01T07:31:15.401Z,2.30
2018-08-01T07:33:42.796Z,2.70
2018-08-01T07:36:10.108Z,8.93
2018-08-01T07:38:37.382Z,2.83
2018-08-01T07:41:05.436Z,2.50
2018-08-01T07:43:32.749Z,2.23
2018-08-01T07:46:00.081Z,1.90
2018-08-01T07:48:27.472Z,2.50
2018-08-01T07:50:54.771Z,2.20
2018-08-01T07:53:22.118Z,2.27
2018-08-01T07:55:50.427Z,2.10
2018-08-01T07:58:18.344Z,2.17
2018-08-01T08:00:45.627Z,2.80
2018-08-01T08:03:12.972Z,2.50
2018-08-01T08:05:40.254Z,2.00
2018-08-01T08:08:07.569Z,1.70
2018-08-01T08:10:34.874Z,2.20
2018-08-01T08:13:02.185Z,1.60
2018-08-01T08:15:29.541Z,2.80
2018-08-01T08:17:56.856Z,1.73
2018-08-01T08:20:24.186Z,1.83
2018-08-01T08:22:51.882Z,1.50
2018-08-01T08:25:19.270Z,2.90
2018-08-01T08:27:46.531Z,2.00
2018-08-01T08:30:13.818Z,1.80
2018-08-01T08:32:41.105Z,1.73
2018-08-01T08:35:08.399Z,2.07
2018-08-01T08:37:35.758Z,1.73
2018-08-01T08:40:03.230Z,1.70
2018-08-01T08:42:30.553Z,2.33
2018-08-01T08:44:57.847Z,2.50
2018-08-01T08:47:25.770Z,1.93
2018-08-01T08:49:53.451Z,1.80
2018-08-01T08:52:20.775Z,1.60
2018-08-01T08:54:48.106Z,1.90
2018-08-01T08:57:15.391Z,2.20
2018-08-01T08:59:42.718Z,2.27
2018-08-01T09:02:10.000Z,1.80
2018-08-01T09:04:37.291Z,1.60
2018-08-01T09:07:04.720Z,1.73
2018-08-01T09:09:31.998Z,1.60
2018-08-01T09:11:59.926Z,1.60
2018-08-01T09:14:27.335Z,1.60
2018-08-01T09:16:55.043Z,1.97
2018-08-01T09:19:22.403Z,1.57
2018-08-01T09:21:49.694Z,1.40
2018-08-01T09:24:16.981Z,1.50
2018-08-01T09:26:44.269Z,1.67
2018-08-01T09:29:11.574Z,1.60
2018-08-01T09:31:40.260Z,1.50
2018-08-01T09:34:07.775Z,1.53
2018-08-01T09:36:35.733Z,1.63
2018-08-01T09:39:03.094Z,1.73
2018-08-01T09:41:30.894Z,1.47
2018-08-01T09:43:58.191Z,1.50
2018-08-01T09:46:26.486Z,1.60
2018-08-01T09:48:53.887Z,1.87
2018-08-01T09:51:25.653Z,1.50
2018-08-01T09:53:53.184Z,1.53
2018-08-01T09:56:20.274Z,1.67
2018-08-01T09:58:48.135Z,1.53
2018-08-01T10:01:26.490Z,1.53
2018-08-01T10:03:55.712Z,1.53
2018-08-01T10:06:24.239Z,1.70
2018-08-01T10:08:52.143Z,2.60
2018-08-01T10:11:20.454Z,1.80
2018-08-01T10:13:48.425Z,1.63
2018-08-01T10:16:16.709Z,1.50
2018-08-01T10:18:48.323Z,2.07
2018-08-01T10:21:20.963Z,1.97
2018-08-01T10:33:37.351Z,1.70
2018-08-01T10:36:05.216Z,1.50
2018-08-01T10:38:32.574Z,1.70
2018-08-01T10:41:00.210Z,1.73
2018-08-01T10:43:27.620Z,2.33
2018-08-01T10:45:55.060Z,1.50
2018-08-01T10:48:26.872Z,1.60
2018-08-01T10:50:54.653Z,1.93
2018-08-01T10:53:21.993Z,1.83
2018-08-01T10:55:49.579Z,1.90
2018-08-01T10:58:16.918Z,1.70
2018-08-01T11:00:45.132Z,1.73
2018-08-01T11:03:17.155Z,2.53
2018-08-01T11:05:44.403Z,1.93
2018-08-01T11:08:13.744Z,1.60
2018-08-01T11:10:41.248Z,1.53
2018-08-01T11:13:09.167Z,1.50
2018-08-01T11:15:37.194Z,1.43
2018-08-01T11:18:05.308Z,1.50
2018-08-01T11:20:32.615Z,1.70
2018-08-01T11:23:00.111Z,1.60
2018-08-01T11:25:28.145Z,1.43
2018-08-01T11:27:55.472Z,1.67
2018-08-01T11:30:22.882Z,1.70
2018-08-01T11:32:50.236Z,1.40
2018-08-01T11:35:17.657Z,1.60
2018-08-01T11:37:45.162Z,1.60
2018-08-01T11:40:16.749Z,1.90
2018-08-01T11:42:44.645Z,1.40
2018-08-01T11:45:12.106Z,1.80
2018-08-01T11:47:39.433Z,1.60
2018-08-01T11:50:07.038Z,1.80
2018-08-01T11:52:34.301Z,1.90
2018-08-01T11:55:01.599Z,1.80
2018-08-01T11:57:29.465Z,2.23
2018-08-01T11:59:56.821Z,1.60
2018-08-01T12:02:24.454Z,1.60
2018-08-01T12:04:51.755Z,2.50
2018-08-01T12:07:19.155Z,1.60
2018-08-01T12:09:47.481Z,1.30
2018-08-01T12:12:15.635Z,1.93
2018-08-01T12:14:44.248Z,2.07
2018-08-01T12:17:11.646Z,1.77
2018-08-01T12:19:39.017Z,1.60
2018-08-01T12:22:06.455Z,1.60
2018-08-01T12:24:34.548Z,1.73
2018-08-01T12:27:01.915Z,1.73
2018-08-01T12:29:29.226Z,1.90
2018-08-01T12:31:56.687Z,2.10
2018-08-01T12:34:24.529Z,2.00
2018-08-01T12:36:51.902Z,1.73
2018-08-01T12:39:20.081Z,2.00
2018-08-01T12:41:48.105Z,2.17
2018-08-01T12:44:15.580Z,1.60
2018-08-01T12:46:42.850Z,1.97
2018-08-01T12:49:10.138Z,1.73
2018-08-01T12:51:37.415Z,1.80
2018-08-01T12:54:04.718Z,2.27
2018-08-01T12:56:31.998Z,1.87
2018-08-01T12:58:59.306Z,1.90
2018-08-01T13:01:26.635Z,1.70
2018-08-01T13:03:54.009Z,1.87
2018-08-01T13:06:21.277Z,1.90
2018-08-01T13:08:48.519Z,1.97
2018-08-01T13:11:15.854Z,1.90
2018-08-01T13:13:43.150Z,2.07
2018-08-01T13:16:10.554Z,1.73
2018-08-01T13:18:37.868Z,2.10
2018-08-01T13:21:05.191Z,1.67
2018-08-01T13:23:32.506Z,2.60
2018-08-01T13:25:59.769Z,2.10
2018-08-01T13:28:27.058Z,1.53
2018-08-01T13:30:54.366Z,1.90
2018-08-01T13:33:21.669Z,1.97
2018-08-01T13:35:49.042Z,2.10
2018-08-01T13:38:16.851Z,1.70
2018-08-01T13:40:44.199Z,1.87
2018-08-01T13:43:11.553Z,2.00
2018-08-01T13:45:38.823Z,1.70
2018-08-01T13:48:06.202Z,2.00
2018-08-01T13:50:33.522Z,2.27
2018-08-01T13:53:01.049Z,2.30
2018-08-01T13:55:28.338Z,2.30
2018-08-01T13:57:55.689Z,1.80
2018-08-01T14:00:23.003Z,2.50
2018-08-01T14:02:50.295Z,2.27
2018-08-01T14:05:17.866Z,2.30
2018-08-01T14:07:45.258Z,1.90
2018-08-01T14:10:12.854Z,1.87
2018-08-01T14:12:40.486Z,2.50
2018-08-01T14:15:08.099Z,1.80
2018-08-01T14:17:35.413Z,2.00
2018-08-01T14:20:02.733Z,2.10
2018-08-01T14:22:30.093Z,2.10
2018-08-01T14:24:57.458Z,2.00
2018-08-01T14:27:25.046Z,1.83
2018-08-01T14:29:52.347Z,1.80
2018-08-01T14:32:20.125Z,2.13
2018-08-01T14:34:47.459Z,2.50
2018-08-01T14:37:14.769Z,1.80
2018-08-01T14:39:42.254Z,2.40
2018-08-01T14:42:09.565Z,2.30
2018-08-01T14:44:36.882Z,2.03
2018-08-01T14:47:04.298Z,2.10
2018-08-01T14:49:31.659Z,2.00
2018-08-01T14:51:59.022Z,2.80
2018-08-01T14:54:26.371Z,2.40
2018-08-01T14:56:53.785Z,2.07
2018-08-01T14:59:22.023Z,1.83
2018-08-01T15:01:49.350Z,2.30
2018-08-01T15:04:16.637Z,2.20
2018-08-01T15:06:44.562Z,2.20
2018-08-01T15:09:12.122Z,2.07
2018-08-01T15:11:39.443Z,2.00
2018-08-01T15:14:06.758Z,2.10
2018-08-01T15:16:34.159Z,1.80
2018-08-01T15:19:01.479Z,2.00
2018-08-01T15:21:28.898Z,1.90
2018-08-01T15:23:56.222Z,2.73
2018-08-01T15:26:24.107Z,2.03
2018-08-01T15:28:51.314Z,1.83
2018-08-01T15:31:18.688Z,2.70
2018-08-01T15:33:46.023Z,2.07
2018-08-01T15:36:13.348Z,1.97
2018-08-01T15:38:40.755Z,1.80
2018-08-01T15:41:08.091Z,2.57
2018-08-01T15:43:35.439Z,2.00
2018-08-01T15:46:02.899Z,2.13
2018-08-01T15:48:30.259Z,1.97
2018-08-01T15:50:57.631Z,2.03
2018-08-01T15:53:25.035Z,2.17
2018-08-01T15:55:52.383Z,2.03
2018-08-01T15:58:19.798Z,2.00
2018-08-01T16:00:47.145Z,2.30
2018-08-01T16:03:19.091Z,1.90
2018-08-01T16:05:46.500Z,2.00
2018-08-01T16:08:13.847Z,2.40
2018-08-01T16:10:41.225Z,2.03
2018-08-01T16:13:09.475Z,2.33
2018-08-01T16:15:36.974Z,2.20
2018-08-01T16:18:04.343Z,2.20
2018-08-01T16:20:31.823Z,2.60
2018-08-01T16:22:59.766Z,1.90
2018-08-01T16:25:27.162Z,2.53
2018-08-01T16:27:54.579Z,2.10
2018-08-01T16:30:22.498Z,2.30
2018-08-01T16:32:49.835Z,1.93
2018-08-01T16:35:17.216Z,2.03
2018-08-01T16:37:49.347Z,2.53
2018-08-01T16:40:16.702Z,1.70
2018-08-01T16:42:44.084Z,2.13
2018-08-01T16:45:17.876Z,2.33
2018-08-01T16:47:50.659Z,2.37
2018-08-01T16:50:22.798Z,2.30
2018-08-01T16:52:50.328Z,2.20
2018-08-01T16:55:17.876Z,2.20
2018-08-01T16:57:45.222Z,1.97
2018-08-01T17:00:12.720Z,2.30
2018-08-01T17:02:40.624Z,2.20
2018-08-01T17:05:08.092Z,3.30
2018-08-01T17:07:36.098Z,2.80
2018-08-01T17:10:03.602Z,2.67
2018-08-01T17:12:30.989Z,2.50
2018-08-01T17:14:59.114Z,2.30
2018-08-01T17:17:26.467Z,2.90
2018-08-01T17:19:54.307Z,2.53
2018-08-01T17:22:21.683Z,2.50
2018-08-01T17:24:49.118Z,2.50
2018-08-01T17:27:16.689Z,2.70
2018-08-01T17:29:44.511Z,2.47
2018-08-01T17:32:11.962Z,2.30
2018-08-01T17:34:40.624Z,1.80
2018-08-01T17:37:08.160Z,2.27
2018-08-01T17:39:35.790Z,2.80
2018-08-01T17:42:04.398Z,2.00
2018-08-01T17:44:31.766Z,2.37
2018-08-01T17:46:59.613Z,2.17
2018-08-01T17:49:27.019Z,2.70
2018-08-01T17:51:54.449Z,2.50
2018-08-01T17:54:22.258Z,2.73
2018-08-01T17:56:49.886Z,2.47
2018-08-01T17:59:17.323Z,2.10
2018-08-01T18:01:44.775Z,2.70
2018-08-01T18:04:13.716Z,2.90
2018-08-01T18:06:41.166Z,1.87
2018-08-01T18:09:09.014Z,2.20
2018-08-01T18:11:36.442Z,2.47
2018-08-01T18:14:04.021Z,2.33
2018-08-01T18:16:31.410Z,2.20
2018-08-01T18:18:59.102Z,2.27
2018-08-01T18:21:26.531Z,2.47
2018-08-01T18:23:53.856Z,2.60
2018-08-01T18:26:21.262Z,2.73
2018-08-01T18:28:48.602Z,2.00
2018-08-01T18:31:16.089Z,2.30
2018-08-01T18:33:43.418Z,2.43
2018-08-01T18:36:10.957Z,1.83
2018-08-01T18:38:38.796Z,2.30
2018-08-01T18:41:06.244Z,2.00
2018-08-01T18:43:33.580Z,2.80
2018-08-01T18:46:00.924Z,2.60
2018-08-01T18:48:28.322Z,2.80
2018-08-01T18:50:55.989Z,2.80
2018-08-01T18:53:24.222Z,2.30
2018-08-01T18:55:51.592Z,2.03
2018-08-01T18:58:23.416Z,2.40
2018-08-01T19:00:51.559Z,2.80
2018-08-01T19:03:19.035Z,2.63
2018-08-01T19:05:46.420Z,2.57
2018-08-01T19:08:13.886Z,2.70
2018-08-01T19:10:46.139Z,2.80
2018-08-01T19:13:13.561Z,2.70
2018-08-01T19:15:41.811Z,2.20
2018-08-01T19:18:09.337Z,1.97
2018-08-01T19:20:36.969Z,1.80
2018-08-01T19:23:04.337Z,1.90
2018-08-01T19:25:32.037Z,2.10
2018-08-01T19:28:00.017Z,2.03
2018-08-01T19:30:27.416Z,2.10
2018-08-01T19:32:54.806Z,2.00
2018-08-01T19:35:22.232Z,2.40
2018-08-01T19:37:50.019Z,2.30
2018-08-01T19:40:21.734Z,2.20
2018-08-01T19:42:49.207Z,2.57
2018-08-01T19:45:16.909Z,2.40
2018-08-01T19:47:49.110Z,1.87
2018-08-01T19:50:16.549Z,2.50
2018-08-01T19:52:44.424Z,2.30
2018-08-01T19:55:12.283Z,1.73
2018-08-01T19:57:39.920Z,2.20
2018-08-01T20:00:11.354Z,2.70
2018-08-01T20:02:39.301Z,2.00
2018-08-01T20:05:07.659Z,2.20
2018-08-01T20:07:35.346Z,1.90
2018-08-01T20:10:02.704Z,2.23
2018-08-01T20:12:34.360Z,2.30
2018-08-01T20:15:01.948Z,1.90
2018-08-01T20:17:29.319Z,2.20
2018-08-01T20:29:46.972Z,1.70
2018-08-01T20:32:14.392Z,2.33
2018-08-01T20:34:43.339Z,1.90
2018-08-01T20:37:13.392Z,1.43
2018-08-01T20:39:40.963Z,1.63
2018-08-01T20:42:09.919Z,1.80
2018-08-01T20:44:37.487Z,2.30
2018-08-01T20:47:05.950Z,1.80
2018-08-01T20:49:33.395Z,1.90
2018-08-01T20:52:00.802Z,1.80
2018-08-01T20:54:28.237Z,2.20
2018-08-01T20:56:56.441Z,1.40
2018-08-01T20:59:24.200Z,1.50
2018-08-01T21:01:55.660Z,1.70
2018-08-01T21:04:23.379Z,2.23
2018-08-01T21:06:50.961Z,1.87
2018-08-01T21:09:18.379Z,1.77
2018-08-01T21:11:50.566Z,2.33
2018-08-01T21:14:18.129Z,1.80
2018-08-01T21:16:45.550Z,1.67
2018-08-01T21:28:58.508Z,2.00
2018-08-01T21:31:26.682Z,1.60
2018-08-01T21:33:54.176Z,1.73
2018-08-01T21:36:26.442Z,2.03
2018-08-01T21:38:54.081Z,1.60
2018-08-01T21:41:21.406Z,1.57
2018-08-01T21:43:48.805Z,1.87
2018-08-01T21:46:16.975Z,1.50
2018-08-01T21:48:44.442Z,1.67
2018-08-01T21:51:12.537Z,1.80
2018-08-01T21:53:41.921Z,1.63
2018-08-01T21:56:09.492Z,1.80
2018-08-01T21:58:41.819Z,1.87
2018-08-01T22:01:09.223Z,2.07
2018-08-01T22:03:37.273Z,2.20
2018-08-01T22:06:05.699Z,2.23
2018-08-01T22:08:33.053Z,1.70
2018-08-01T22:11:00.473Z,1.60
2018-08-01T22:13:30.737Z,2.07
2018-08-01T22:15:58.384Z,1.90
2018-08-01T22:18:26.302Z,1.93
2018-08-01T22:20:54.349Z,2.03
2018-08-01T22:23:21.796Z,1.67
2018-08-01T22:25:49.322Z,1.90
2018-08-01T22:28:17.035Z,1.80
2018-08-01T22:30:44.462Z,2.57
2018-08-01T22:33:11.879Z,1.87
2018-08-01T22:35:39.499Z,2.10
2018-08-01T22:38:11.680Z,1.50
2018-08-01T22:40:39.078Z,2.20
2018-08-01T22:43:07.873Z,2.10
2018-08-01T22:45:35.908Z,2.50
2018-08-01T22:48:03.407Z,2.10
2018-08-01T23:00:15.773Z,1.93
2018-08-01T23:02:45.866Z,1.60
2018-08-01T23:05:13.299Z,2.43
2018-08-01T23:07:41.132Z,2.27
2018-08-01T23:10:09.007Z,1.83
2018-08-01T23:12:37.031Z,2.10
2018-08-01T23:15:09.203Z,1.80
2018-08-01T23:17:36.909Z,1.83
2018-08-01T23:20:05.950Z,1.90
2018-08-01T23:22:34.395Z,2.07
2018-08-01T23:25:02.556Z,1.97
2018-08-01T23:27:30.766Z,2.33
2018-08-01T23:29:58.451Z,1.97
2018-08-01T23:34:58.363Z,2.63
2018-08-01T23:37:30.482Z,2.50
2018-08-01T23:39:57.918Z,2.30
2018-08-01T23:42:28.791Z,2.10
2018-08-01T23:44:56.152Z,1.90
2018-08-01T23:47:23.676Z,2.30
2018-08-01T23:49:59.901Z,2.37
2018-08-01T23:52:28.416Z,2.20
2018-08-01T23:54:55.895Z,1.90
2018-08-01T23:57:23.432Z,1.80
2018-08-01T23:59:51.178Z,1.93
